Time;durP1;ratioP1;P1;durP2;ratioP2;P2;SDS_P1;SDS_P2;PMS_P1;PMS_P2;Temp;Humidity;BMP_temperature;BMP_pressure;BME280_temperature;BME280_humidity;BME280_pressure;Samples;Min_cycle;Max_cycle;Signal;HPM_P1;HPM_P2
2024/02/07 00:01:55;;;;;;;0.00;0.00;;;;;;;;;;6323457;22;20031;-91
2024/02/07 00:04:23;;;;;;;1.98;0.20;;;;;;;;;;6302339;22;20019;-90
2024/02/07 00:06:58;;;;;;;0.00;0.00;;;;;;;;;;6307983;22;20120;-91
2024/02/07 00:09:27;;;;;;;0.10;0.10;;;;;;;;;;6307974;22;20011;-91
2024/02/07 00:11:55;;;;;;;0.00;0.00;;;;;;;;;;6307503;22;20045;-91
2024/02/07 00:14:26;;;;;;;0.22;0.15;;;;;;;;;;6308791;22;20214;-92
2024/02/07 00:16:59;;;;;;;0.10;0.10;;;;;;;;;;6308757;22;20007;-91
2024/02/07 00:19:40;;;;;;;0.10;0.10;;;;;;;;;;6334002;22;20153;-90
2024/02/07 00:22:09;;;;;;;0.00;0.00;;;;;;;;;;6307057;22;20045;-92
2024/02/07 00:24:40;;;;;;;0.00;0.00;;;;;;;;;;6308337;22;20027;-91
2024/02/07 00:27:09;;;;;;;0.08;0.08;;;;;;;;;;6302748;22;20115;-90
2024/02/07 00:29:37;;;;;;;0.00;0.00;;;;;;;;;;6295077;22;20027;-91
2024/02/07 00:32:05;;;;;;;0.05;0.05;;;;;;;;;;6320131;22;20024;-91
2024/02/07 00:34:37;;;;;;;0.10;0.10;;;;;;;;;;6318925;22;20389;-91
2024/02/07 00:37:05;;;;;;;0.00;0.00;;;;;;;;;;6291989;22;20055;-91
2024/02/07 00:39:45;;;;;;;0.10;0.10;;;;;;;;;;6297622;22;20027;-91
2024/02/07 00:42:13;;;;;;;0.08;0.08;;;;;;;;;;6295370;22;20023;-91
2024/02/07 00:44:43;;;;;;;0.00;0.00;;;;;;;;;;6295008;22;20046;-91
2024/02/07 00:47:13;;;;;;;0.00;0.00;;;;;;;;;;6295708;22;20023;-91
2024/02/07 00:49:41;;;;;;;0.00;0.00;;;;;;;;;;6296685;22;20045;-91
2024/02/07 00:52:13;;;;;;;0.10;0.10;;;;;;;;;;6298082;22;20019;-90
2024/02/07 00:55:30;;;;;;;0.10;0.10;;;;;;;;;;6295208;22;20025;-91
2024/02/07 00:58:19;;;;;;;0.52;0.20;;;;;;;;;;6320411;22;20027;-91
2024/02/07 01:00:48;;;;;;;0.10;0.10;;;;;;;;;;6295138;22;20030;-92
2024/02/07 01:03:25;;;;;;;0.10;0.10;;;;;;;;;;6301834;22;20011;-92
2024/02/07 01:05:55;;;;;;;0.00;0.00;;;;;;;;;;6298875;22;20027;-90
2024/02/07 01:08:32;;;;;;;0.05;0.05;;;;;;;;;;6299100;22;20003;-91
2024/02/07 01:11:07;;;;;;;0.00;0.00;;;;;;;;;;6319177;22;20054;-90
2024/02/07 01:13:38;;;;;;;0.10;0.10;;;;;;;;;;6294951;22;20043;-89
2024/02/07 01:16:08;;;;;;;0.03;0.03;;;;;;;;;;6295214;22;20046;-91
2024/02/07 01:18:37;;;;;;;0.17;0.17;;;;;;;;;;6294747;22;20079;-91
2024/02/07 01:21:11;;;;;;;0.32;0.10;;;;;;;;;;6295550;22;20106;-90
2024/02/07 01:23:52;;;;;;;0.10;0.10;;;;;;;;;;6289325;22;20024;-91
2024/02/07 01:26:23;;;;;;;0.00;0.00;;;;;;;;;;6291852;22;20023;-91
2024/02/07 01:28:58;;;;;;;0.13;0.13;;;;;;;;;;6300767;22;20043;-91
2024/02/07 01:31:32;;;;;;;0.08;0.08;;;;;;;;;;6300768;22;20197;-91
2024/02/07 01:34:06;;;;;;;0.20;0.20;;;;;;;;;;6288167;22;20305;-91
2024/02/07 01:36:45;;;;;;;0.05;0.05;;;;;;;;;;6290778;22;20026;-90
2024/02/07 01:39:20;;;;;;;0.10;0.10;;;;;;;;;;6297018;22;20008;-90
2024/02/07 01:42:02;;;;;;;0.10;0.10;;;;;;;;;;6292854;22;20061;-90
2024/02/07 01:44:31;;;;;;;0.00;0.00;;;;;;;;;;6289099;22;20075;-90
2024/02/07 01:47:13;;;;;;;0.20;0.20;;;;;;;;;;6291743;22;20019;-91
2024/02/07 01:49:45;;;;;;;0.10;0.10;;;;;;;;;;6291945;22;20077;-91
2024/02/07 01:52:22;;;;;;;0.10;0.10;;;;;;;;;;6285357;22;20019;-90
2024/02/07 01:54:56;;;;;;;0.00;0.00;;;;;;;;;;6292369;22;20047;-90
2024/02/07 01:57:28;;;;;;;0.05;0.05;;;;;;;;;;6286740;22;20027;-91
2024/02/07 02:00:02;;;;;;;0.10;0.10;;;;;;;;;;6286698;22;20023;-91
2024/02/07 02:02:47;;;;;;;0.00;0.00;;;;;;;;;;6288001;22;20035;-91
2024/02/07 02:05:16;;;;;;;0.10;0.10;;;;;;;;;;6287885;22;20043;-90
2024/02/07 02:07:45;;;;;;;0.10;0.10;;;;;;;;;;6287672;22;20033;-90
2024/02/07 02:10:15;;;;;;;2.70;2.50;;;;;;;;;;6290009;22;20036;-90
2024/02/07 02:12:44;;;;;;;0.05;0.05;;;;;;;;;;6285749;22;20019;-90
2024/02/07 02:15:14;;;;;;;0.10;0.10;;;;;;;;;;6287368;22;20101;-90
2024/02/07 02:17:56;;;;;;;0.08;0.08;;;;;;;;;;6286870;22;20021;-90
2024/02/07 02:20:29;;;;;;;0.08;0.08;;;;;;;;;;6288587;22;20077;-90
2024/02/07 02:23:19;;;;;;;0.00;0.00;;;;;;;;;;6293344;22;20035;-90
2024/02/07 02:26:26;;;;;;;0.08;0.08;;;;;;;;;;6319162;22;20011;-89
2024/02/07 02:29:04;;;;;;;0.00;0.00;;;;;;;;;;6205535;23;20072;-89
2024/02/07 02:31:33;;;;;;;0.10;0.10;;;;;;;;;;6314439;22;20019;-91
2024/02/07 02:34:05;;;;;;;0.05;0.05;;;;;;;;;;6326137;22;20027;-90
2024/02/07 02:36:38;;;;;;;0.00;0.00;;;;;;;;;;6320405;22;20069;-90
2024/02/07 02:39:14;;;;;;;0.00;0.00;;;;;;;;;;6319283;22;20457;-91
2024/02/07 02:41:42;;;;;;;0.00;0.00;;;;;;;;;;6316599;22;20034;-90
2024/02/07 02:44:13;;;;;;;0.00;0.00;;;;;;;;;;6315754;22;20025;-91
2024/02/07 02:46:41;;;;;;;0.08;0.08;;;;;;;;;;6313517;22;20091;-91
2024/02/07 02:49:11;;;;;;;0.20;0.05;;;;;;;;;;6330292;22;20019;-91
2024/02/07 02:51:39;;;;;;;0.00;0.00;;;;;;;;;;6327640;22;20023;-91
2024/02/07 02:55:18;;;;;;;0.03;0.03;;;;;;;;;;6319826;22;20023;-91
2024/02/07 02:57:32;;;;;;;0.10;0.10;;;;;;;;;;6288046;22;20011;-90
2024/02/07 03:00:07;;;;;;;0.05;0.05;;;;;;;;;;6329649;22;20400;-91
2024/02/07 03:02:37;;;;;;;0.10;0.10;;;;;;;;;;6330618;22;20026;-91
2024/02/07 03:05:37;;;;;;;0.10;0.10;;;;;;;;;;6331318;22;20081;-90
2024/02/07 03:07:54;;;;;;;0.00;0.00;;;;;;;;;;6331395;22;20023;-90
2024/02/07 03:10:23;;;;;;;0.10;0.10;;;;;;;;;;6331166;22;20007;-90
2024/02/07 03:12:53;;;;;;;0.00;0.00;;;;;;;;;;6320417;22;20385;-91
2024/02/07 03:15:21;;;;;;;0.00;0.00;;;;;;;;;;6317994;22;20030;-90
2024/02/07 03:17:54;;;;;;;0.00;0.00;;;;;;;;;;6315496;22;20023;-91
2024/02/07 03:20:24;;;;;;;0.00;0.00;;;;;;;;;;6313305;22;20042;-91
2024/02/07 03:22:54;;;;;;;0.10;0.10;;;;;;;;;;6316595;22;20042;-91
2024/02/07 03:25:26;;;;;;;0.10;0.10;;;;;;;;;;6318245;22;20019;-90
2024/02/07 03:28:10;;;;;;;0.03;0.03;;;;;;;;;;6318253;22;20023;-91
2024/02/07 03:30:39;;;;;;;0.00;0.00;;;;;;;;;;6317807;22;20019;-90
2024/02/07 03:33:12;;;;;;;0.10;0.10;;;;;;;;;;6315367;22;20094;-89
2024/02/07 03:35:43;;;;;;;0.10;0.10;;;;;;;;;;6314204;22;20029;-91
2024/02/07 03:38:13;;;;;;;0.10;0.10;;;;;;;;;;6314471;22;20026;-91
2024/02/07 03:40:49;;;;;;;0.10;0.10;;;;;;;;;;6315527;22;20075;-90
2024/02/07 03:43:17;;;;;;;0.10;0.10;;;;;;;;;;6313451;22;20047;-90
2024/02/07 03:45:46;;;;;;;0.08;0.08;;;;;;;;;;6315507;22;20027;-90
2024/02/07 03:48:15;;;;;;;0.10;0.10;;;;;;;;;;6319729;22;20083;-90
2024/02/07 03:50:48;;;;;;;0.10;0.10;;;;;;;;;;6319202;22;20037;-90
2024/02/07 03:53:19;;;;;;;0.05;0.05;;;;;;;;;;6323058;22;20072;-90
2024/02/07 03:55:48;;;;;;;0.08;0.08;;;;;;;;;;6319567;22;20510;-90
2024/02/07 03:58:15;;;;;;;0.10;0.10;;;;;;;;;;6315504;22;20065;-91
2024/02/07 04:00:49;;;;;;;0.10;0.10;;;;;;;;;;6313044;22;20046;-90
2024/02/07 04:03:20;;;;;;;0.08;0.08;;;;;;;;;;6311969;22;20019;-90
2024/02/07 04:05:50;;;;;;;0.00;0.00;;;;;;;;;;6313984;22;20019;-90
2024/02/07 04:08:19;;;;;;;0.10;0.10;;;;;;;;;;6315519;22;20019;-90
2024/02/07 04:10:51;;;;;;;0.10;0.10;;;;;;;;;;6314695;22;20019;-90
2024/02/07 05:17:21;;;;;;;0.17;0.17;;;;;;;;;;6332087;22;20068;-92
2024/02/07 05:19:48;;;;;;;0.05;0.05;;;;;;;;;;6323442;22;20110;-92
2024/02/07 05:37:01;;;;;;;0.10;0.10;;;;;;;;;;6326622;22;20078;-92
2024/02/07 05:39:35;;;;;;;0.03;0.03;;;;;;;;;;6325845;22;20486;-91
2024/02/07 05:42:02;;;;;;;0.00;0.00;;;;;;;;;;6352195;22;20084;-91
2024/02/07 05:44:32;;;;;;;0.10;0.10;;;;;;;;;;6350023;22;20031;-91
2024/02/07 05:47:02;;;;;;;0.00;0.00;;;;;;;;;;6353106;22;20014;-92
2024/02/07 05:49:32;;;;;;;0.20;0.20;;;;;;;;;;6323734;22;20023;-91
2024/02/07 05:52:03;;;;;;;0.10;0.10;;;;;;;;;;6324496;22;20058;-92
2024/02/07 05:54:31;;;;;;;0.00;0.00;;;;;;;;;;6325278;22;20023;-91
2024/02/07 05:57:03;;;;;;;1.00;0.20;;;;;;;;;;6352102;22;20061;-91
2024/02/07 05:59:31;;;;;;;0.28;0.28;;;;;;;;;;6322325;22;20034;-89
2024/02/07 06:02:04;;;;;;;0.10;0.10;;;;;;;;;;6333734;22;20033;-91
2024/02/07 06:07:54;;;;;;;0.00;0.00;;;;;;;;;;6350597;22;20334;-92
2024/02/07 06:10:23;;;;;;;0.10;0.10;;;;;;;;;;6346436;22;20023;-92
2024/02/07 06:12:50;;;;;;;0.20;0.10;;;;;;;;;;6319240;22;20056;-91
2024/02/07 06:15:19;;;;;;;0.00;0.00;;;;;;;;;;6321872;22;20046;-91
2024/02/07 06:17:47;;;;;;;0.00;0.00;;;;;;;;;;6348891;22;20023;-92
2024/02/07 06:20:16;;;;;;;0.10;0.10;;;;;;;;;;6330291;22;20030;-91
2024/02/07 06:22:47;;;;;;;0.00;0.00;;;;;;;;;;6329021;22;20034;-91
2024/02/07 06:25:15;;;;;;;0.00;0.00;;;;;;;;;;6326558;22;20079;-91
2024/02/07 06:27:43;;;;;;;0.00;0.00;;;;;;;;;;6344502;22;20078;-91
2024/02/07 06:30:11;;;;;;;0.10;0.10;;;;;;;;;;6344499;22;20369;-91
2024/02/07 06:32:38;;;;;;;0.10;0.10;;;;;;;;;;6315882;22;20022;-91
2024/02/07 06:35:06;;;;;;;0.10;0.10;;;;;;;;;;6316474;22;20023;-92
2024/02/07 06:37:34;;;;;;;0.10;0.10;;;;;;;;;;6316438;22;20023;-92
2024/02/07 06:40:02;;;;;;;0.10;0.10;;;;;;;;;;6319466;22;20102;-91
2024/02/07 06:42:29;;;;;;;0.10;0.10;;;;;;;;;;6318679;22;20205;-92
2024/02/07 06:44:57;;;;;;;0.10;0.10;;;;;;;;;;6328336;22;20245;-91
2024/02/07 06:47:24;;;;;;;0.00;0.00;;;;;;;;;;6357080;22;20022;-91
2024/02/07 06:49:52;;;;;;;0.00;0.00;;;;;;;;;;6345472;22;20015;-90
2024/02/07 06:52:23;;;;;;;0.00;0.00;;;;;;;;;;6316020;22;20489;-91
2024/02/07 06:54:51;;;;;;;0.10;0.10;;;;;;;;;;6316687;22;20030;-90
2024/02/07 06:57:19;;;;;;;0.10;0.10;;;;;;;;;;6343207;22;20049;-89
2024/02/07 06:59:48;;;;;;;0.10;0.10;;;;;;;;;;6317168;22;20019;-90
2024/02/07 07:02:17;;;;;;;0.10;0.10;;;;;;;;;;6317201;22;20522;-90
2024/02/07 16:29:47;;;;;;;0.10;0.10;;;;;;;;;;6289664;22;20026;-90
2024/02/07 16:36:11;;;;;;;0.00;0.00;;;;;;;;;;6350828;22;20033;-90
2024/02/07 16:39:07;;;;;;;0.10;0.10;;;;;;;;;;6329717;22;20027;-91
2024/02/07 16:42:00;;;;;;;0.00;0.00;;;;;;;;;;6324029;22;20080;-91
2024/02/07 16:44:48;;;;;;;0.08;0.08;;;;;;;;;;6340744;22;20014;-90
2024/02/07 16:47:22;;;;;;;0.10;0.10;;;;;;;;;;6324043;22;20046;-91
2024/02/07 16:49:50;;;;;;;0.10;0.10;;;;;;;;;;6325853;22;20034;-89
2024/02/07 16:52:20;;;;;;;0.03;0.03;;;;;;;;;;6320048;22;20034;-91
2024/02/07 16:54:50;;;;;;;0.08;0.08;;;;;;;;;;6321046;22;20030;-91
2024/02/07 16:57:21;;;;;;;0.10;0.10;;;;;;;;;;6318917;22;20335;-90
2024/02/07 16:59:50;;;;;;;0.10;0.10;;;;;;;;;;6322745;22;20041;-89
2024/02/07 18:56:26;;;;;;;;;;;;;;;;;;;;;
2024/02/07 18:59:33;;;;;;;0.35;0.35;;;;;;;;;;6260680;23;20023;-89
2024/02/07 19:02:54;;;;;;;0.10;0.10;;;;;;;;;;6261670;23;20028;-90
2024/02/07 19:06:05;;;;;;;0.17;0.17;;;;;;;;;;6169317;23;20075;-90
2024/02/07 19:12:50;;;;;;;0.10;0.10;;;;;;;;;;6243605;22;20035;-89
2024/02/07 19:15:34;;;;;;;0.10;0.10;;;;;;;;;;6286458;22;20020;-90
2024/02/07 19:18:42;;;;;;;0.20;0.20;;;;;;;;;;6262766;22;20012;-91
2024/02/07 19:21:29;;;;;;;0.00;0.00;;;;;;;;;;6269085;22;20012;-89
2024/02/07 19:24:24;;;;;;;0.10;0.10;;;;;;;;;;6277085;22;20062;-90
2024/02/07 19:27:08;;;;;;;0.10;0.10;;;;;;;;;;6292767;22;20040;-89
2024/02/07 19:30:17;;;;;;;0.17;0.17;;;;;;;;;;6260504;22;20048;-89
2024/02/07 19:33:18;;;;;;;0.17;0.17;;;;;;;;;;6259584;22;20035;-90
2024/02/07 19:36:11;;;;;;;0.10;0.10;;;;;;;;;;6259626;22;20103;-90
2024/02/07 19:39:25;;;;;;;0.10;0.10;;;;;;;;;;6273729;22;20036;-89
2024/02/07 19:42:50;;;;;;;0.10;0.10;;;;;;;;;;4600733;27;15239292;-90
2024/02/07 19:45:56;;;;;;;0.10;0.10;;;;;;;;;;5124127;28;20055;-89
2024/02/07 19:48:48;;;;;;;0.10;0.10;;;;;;;;;;5107361;28;20059;-90
2024/02/07 19:52:00;;;;;;;;;;;;;;;;;;;;;
2024/02/07 19:54:43;;;;;;;0.50;0.50;;;;;;;;;;5131476;28;20051;-90
2024/02/07 19:57:42;;;;;;;0.10;0.10;;;;;;;;;;5126553;28;20044;-90
2024/02/07 20:00:28;;;;;;;0.10;0.10;;;;;;;;;;5124982;28;20062;-90
2024/02/07 20:03:10;;;;;;;0.20;0.20;;;;;;;;;;5123488;28;20061;-90
2024/02/07 20:05:52;;;;;;;0.10;0.10;;;;;;;;;;5121926;28;20083;-90
2024/02/07 20:08:55;;;;;;;0.10;0.10;;;;;;;;;;5122880;28;20043;-90
2024/02/07 20:11:36;;;;;;;0.10;0.10;;;;;;;;;;5124622;28;20308;-90
2024/02/07 20:14:18;;;;;;;0.15;0.15;;;;;;;;;;5126370;28;20035;-89
2024/02/07 21:18:55;;;;;;;0.10;0.10;;;;;;;;;;5023601;28;20034;-90
2024/02/07 21:21:22;;;;;;;0.10;0.10;;;;;;;;;;5007019;28;20050;-89
2024/02/07 21:23:51;;;;;;;0.10;0.10;;;;;;;;;;5009085;28;20042;-90
2024/02/07 21:26:33;;;;;;;0.10;0.10;;;;;;;;;;5008200;28;20054;-89
2024/02/07 21:29:05;;;;;;;0.10;0.10;;;;;;;;;;5012140;28;20050;-90
2024/02/07 21:31:53;;;;;;;0.10;0.10;;;;;;;;;;5013393;28;20116;-90
2024/02/07 21:34:24;;;;;;;0.17;0.17;;;;;;;;;;5013321;28;20105;-88
2024/02/07 21:36:59;;;;;;;0.20;0.20;;;;;;;;;;5016281;28;20073;-89
2024/02/07 21:39:36;;;;;;;0.10;0.10;;;;;;;;;;5020238;28;20057;-90
2024/02/07 21:42:11;;;;;;;0.20;0.20;;;;;;;;;;5018368;28;20060;-90
2024/02/07 21:44:48;;;;;;;0.20;0.20;;;;;;;;;;5020042;28;20086;-89
2024/02/07 21:47:33;;;;;;;0.20;0.20;;;;;;;;;;5035552;28;20041;-90
2024/02/07 21:50:07;;;;;;;0.10;0.10;;;;;;;;;;5015982;28;20060;-89
2024/02/07 21:52:38;;;;;;;0.20;0.20;;;;;;;;;;5012262;28;20054;-89
2024/02/07 21:55:11;;;;;;;0.13;0.13;;;;;;;;;;5011302;28;20053;-91
2024/02/07 21:57:52;;;;;;;0.10;0.10;;;;;;;;;;5014315;28;20054;-89
2024/02/07 22:00:20;;;;;;;0.30;0.30;;;;;;;;;;5011611;28;20433;-89
2024/02/07 22:02:53;;;;;;;1.10;1.05;;;;;;;;;;5010768;28;20113;-89
2024/02/07 22:05:24;;;;;;;0.10;0.10;;;;;;;;;;5008779;28;20057;-89
2024/02/07 22:07:53;;;;;;;0.20;0.20;;;;;;;;;;5024303;28;20049;-89
2024/02/07 22:10:21;;;;;;;0.10;0.10;;;;;;;;;;5013991;28;20061;-89
2024/02/07 22:12:50;;;;;;;0.10;0.10;;;;;;;;;;5018462;28;20113;-90
2024/02/07 22:15:29;;;;;;;0.10;0.10;;;;;;;;;;5037696;28;20050;-89
2024/02/07 22:17:57;;;;;;;0.10;0.10;;;;;;;;;;5028437;28;20092;-90
2024/02/07 22:20:25;;;;;;;0.10;0.10;;;;;;;;;;5023273;28;20061;-88
2024/02/07 22:22:56;;;;;;;0.20;0.20;;;;;;;;;;5023846;28;20054;-89
2024/02/07 22:25:27;;;;;;;0.10;0.10;;;;;;;;;;5027278;28;20053;-89
2024/02/07 22:28:00;;;;;;;0.10;0.10;;;;;;;;;;5027861;28;20050;-90
2024/02/07 22:30:28;;;;;;;0.10;0.10;;;;;;;;;;5022469;28;20050;-90
2024/02/07 22:32:57;;;;;;;0.10;0.10;;;;;;;;;;5023619;28;20082;-89
2024/02/07 22:35:24;;;;;;;0.05;0.05;;;;;;;;;;5023598;28;20050;-90
2024/02/07 22:37:52;;;;;;;0.20;0.20;;;;;;;;;;5023191;28;20209;-89
2024/02/07 22:40:20;;;;;;;1.08;1.08;;;;;;;;;;5025337;28;20049;-90
2024/02/07 22:42:48;;;;;;;1.85;0.63;;;;;;;;;;5024852;28;20061;-89
2024/02/07 22:45:22;;;;;;;0.20;0.20;;;;;;;;;;5025077;28;20145;-88
2024/02/07 22:47:50;;;;;;;0.20;0.20;;;;;;;;;;5023522;28;20116;-89
2024/02/07 22:50:19;;;;;;;0.10;0.10;;;;;;;;;;5022585;28;20061;-89
2024/02/07 22:52:48;;;;;;;0.10;0.10;;;;;;;;;;5023778;28;20049;-89
2024/02/07 22:55:17;;;;;;;0.20;0.20;;;;;;;;;;5024085;28;20078;-89
2024/02/07 22:57:47;;;;;;;0.20;0.20;;;;;;;;;;5023854;28;20050;-89
2024/02/07 23:00:23;;;;;;;0.10;0.10;;;;;;;;;;5021738;28;20058;-90
2024/02/07 23:02:54;;;;;;;0.20;0.20;;;;;;;;;;5020495;28;20049;-90
2024/02/07 23:05:22;;;;;;;0.15;0.15;;;;;;;;;;5020544;28;20132;-89
2024/02/07 23:07:50;;;;;;;0.20;0.20;;;;;;;;;;5020783;28;20050;-89
2024/02/07 23:10:20;;;;;;;0.10;0.10;;;;;;;;;;5026643;28;20078;-89
2024/02/07 23:12:48;;;;;;;0.10;0.10;;;;;;;;;;5031137;28;20050;-89
2024/02/07 23:15:16;;;;;;;0.17;0.17;;;;;;;;;;5022543;28;20054;-89
2024/02/07 23:18:03;;;;;;;0.20;0.20;;;;;;;;;;5029836;28;20054;-90
2024/02/07 23:21:01;;;;;;;0.10;0.10;;;;;;;;;;5026577;28;20119;-89
2024/02/07 23:23:32;;;;;;;0.10;0.10;;;;;;;;;;5019968;28;20049;-90
2024/02/07 23:26:02;;;;;;;0.20;0.20;;;;;;;;;;5020168;28;20147;-89
2024/02/07 23:28:30;;;;;;;0.70;0.70;;;;;;;;;;5019178;28;20053;-89
2024/02/07 23:31:00;;;;;;;0.10;0.10;;;;;;;;;;5023570;28;20077;-90
2024/02/07 23:33:28;;;;;;;0.13;0.13;;;;;;;;;;5026294;28;20053;-88
2024/02/07 23:35:57;;;;;;;0.10;0.10;;;;;;;;;;5033465;28;20127;-89
2024/02/07 23:38:31;;;;;;;0.10;0.10;;;;;;;;;;5033664;28;20057;-90
2024/02/07 23:41:05;;;;;;;9.63;9.02;;;;;;;;;;5035514;28;20084;-90
2024/02/07 23:43:38;;;;;;;0.15;0.15;;;;;;;;;;5032673;28;20046;-90
2024/02/07 23:46:19;;;;;;;0.10;0.10;;;;;;;;;;5030054;28;20052;-89
2024/02/07 23:48:47;;;;;;;0.10;0.10;;;;;;;;;;5028419;28;20056;-90
2024/02/07 23:51:21;;;;;;;0.10;0.10;;;;;;;;;;5020700;28;20092;-89
2024/02/07 23:53:51;;;;;;;0.75;0.75;;;;;;;;;;5021598;28;20076;-89
2024/02/07 23:56:19;;;;;;;0.17;0.17;;;;;;;;;;5022372;28;20062;-88
2024/02/07 23:58:46;;;;;;;0.15;0.15;;;;;;;;;;5021446;28;20117;-88
